Time;durP1;ratioP1;P1;durP2;ratioP2;P2;SDS_P1;SDS_P2;PMS_P1;PMS_P2;Temp;Humidity;BMP_temperature;BMP_pressure;BME280_temperature;BME280_humidity;BME280_pressure;Samples;Min_cycle;Max_cycle;Signal;HPM_P1;HPM_P2
2022/05/14 00:00:21;;;;;;;;;;;;;;;11.17;61.67;99268.34;4902277;29;2326;-94
2022/05/14 00:02:48;;;;;;;;;;;;;;;11.16;61.71;99264.84;4903242;29;2204;-94
2022/05/14 00:05:15;;;;;;;;;;;;;;;11.15;61.66;99268.59;4900364;29;1542;-93
2022/05/14 00:07:41;;;;;;;;;;;;;;;11.14;61.61;99270.47;4905944;29;1916;-93
2022/05/14 00:10:08;;;;;;;;;;;;;;;11.13;61.53;99263.47;4903974;29;1086;-93
2022/05/14 00:15:19;;;;;;;;;;;;;;;11.13;61.61;99262.66;4896106;29;1947;-93
2022/05/14 00:17:47;;;;;;;;;;;;;;;11.12;61.51;99264.53;4918107;29;1900;-93
2022/05/14 00:20:13;;;;;;;;;;;;;;;11.12;61.61;99256.44;4920063;29;1564;-93
2022/05/14 00:22:39;;;;;;;;;;;;;;;11.12;61.63;99247.56;4918439;29;2398;-93
2022/05/14 00:25:07;;;;;;;;;;;;;;;11.11;61.58;99244.03;4926112;29;1108;-93
2022/05/14 00:27:33;;;;;;;;;;;;;;;11.12;61.71;99239.47;4921551;29;1908;-92
2022/05/14 00:30:00;;;;;;;;;;;;;;;11.12;61.64;99247.56;4896492;29;2593;-94
2022/05/14 00:32:26;;;;;;;;;;;;;;;11.11;61.59;99244.03;4898657;29;2395;-93
2022/05/14 00:34:53;;;;;;;;;;;;;;;11.12;61.60;99247.56;4919856;29;2039;-93
2022/05/14 00:37:20;;;;;;;;;;;;;;;11.12;61.37;99247.56;4903249;29;1284;-93
2022/05/14 00:39:46;;;;;;;;;;;;;;;11.11;61.47;99241.34;4901905;29;2336;-93
2022/05/14 00:42:13;;;;;;;;;;;;;;;11.11;61.55;99238.63;4926037;29;2268;-94
2022/05/14 00:44:39;;;;;;;;;;;;;;;11.11;61.33;99235.94;4902208;29;2209;-93
2022/05/14 00:47:06;;;;;;;;;;;;;;;11.10;61.49;99231.63;4900811;29;2742;-93
2022/05/14 00:49:32;;;;;;;;;;;;;;;11.10;61.38;99238.91;4897662;29;2175;-93
2022/05/14 00:51:59;;;;;;;;;;;;;;;11.10;61.43;99239.72;4901545;29;1882;-93
2022/05/14 00:54:26;;;;;;;;;;;;;;;11.09;61.53;99232.72;4911004;29;2420;-92
2022/05/14 00:56:52;;;;;;;;;;;;;;;11.08;61.42;99244.53;4907618;29;1227;-93
2022/05/14 00:59:19;;;;;;;;;;;;;;;11.08;61.42;99241.03;4899972;29;1962;-93
2022/05/14 01:01:46;;;;;;;;;;;;;;;11.08;61.39;99252.63;4927309;29;2739;-93
2022/05/14 01:04:12;;;;;;;;;;;;;;;11.07;61.41;99252.91;4908601;29;1973;-93
2022/05/14 01:06:39;;;;;;;;;;;;;;;11.07;61.35;99248.31;4902662;29;1715;-93
2022/05/14 01:09:06;;;;;;;;;;;;;;;11.07;61.44;99252.91;4903511;29;2703;-93
2022/05/14 01:11:33;;;;;;;;;;;;;;;11.06;61.27;99265.56;4904946;29;2088;-93
2022/05/14 01:13:59;;;;;;;;;;;;;;;11.06;61.40;99278.19;4900143;29;2125;-93
2022/05/14 01:16:26;;;;;;;;;;;;;;;11.06;61.40;99278.19;4902135;29;2048;-93
2022/05/14 01:18:52;;;;;;;;;;;;;;;11.05;61.45;99277.38;4902788;29;1986;-93
2022/05/14 01:21:19;;;;;;;;;;;;;;;11.05;61.50;99282.78;4902390;29;1883;-93
2022/05/14 01:26:29;;;;;;;;;;;;;;;11.03;61.36;99279.53;4912696;29;2323;-93
2022/05/14 01:28:56;;;;;;;;;;;;;;;11.02;61.36;99280.59;4910296;29;2347;-93
2022/05/14 01:31:22;;;;;;;;;;;;;;;11.01;61.39;99287.06;4909125;29;1732;-93
2022/05/14 01:33:49;;;;;;;;;;;;;;;11.02;61.44;99282.47;4901630;29;1990;-93
2022/05/14 01:36:15;;;;;;;;;;;;;;;11.01;61.40;99275.47;4902363;29;1188;-93
2022/05/14 01:38:42;;;;;;;;;;;;;;;11.00;61.42;99271.13;4900605;29;2777;-93
2022/05/14 01:41:09;;;;;;;;;;;;;;;10.99;61.43;99278.41;4903501;29;2402;-93
2022/05/14 01:43:36;;;;;;;;;;;;;;;10.99;61.25;99278.41;4898497;29;2706;-93
2022/05/14 01:46:02;;;;;;;;;;;;;;;10.99;61.40;99283.78;4910415;29;2800;-93
2022/05/14 01:48:29;;;;;;;;;;;;;;;10.98;61.35;99284.88;4900764;29;2436;-93
2022/05/14 01:50:55;;;;;;;;;;;;;;;10.97;61.50;99277.84;4917550;29;1450;-93
2022/05/14 01:53:21;;;;;;;;;;;;;;;10.96;61.46;99268.13;4915325;29;2750;-93
2022/05/14 01:55:48;;;;;;;;;;;;;;;10.96;61.45;99276.22;4910253;29;1178;-92
2022/05/14 02:00:59;;;;;;;;;;;;;;;10.95;61.41;99276.47;4901378;29;2279;-93
2022/05/14 02:03:25;;;;;;;;;;;;;;;10.95;61.29;99289.94;4900980;29;1909;-93
2022/05/14 02:05:52;;;;;;;;;;;;;;;10.94;61.29;99291.00;4899577;29;2107;-93
2022/05/14 02:08:18;;;;;;;;;;;;;;;10.91;61.28;99287.75;4899470;29;2067;-93
2022/05/14 02:10:45;;;;;;;;;;;;;;;10.93;61.25;99302.84;4917372;29;1273;-93
2022/05/14 02:13:11;;;;;;;;;;;;;;;10.90;61.31;99304.16;4916602;29;2594;-92
2022/05/14 02:15:38;;;;;;;;;;;;;;;10.91;61.25;99305.78;4900979;29;2611;-93
2022/05/14 02:18:04;;;;;;;;;;;;;;;10.89;61.22;99306.03;4918436;29;2099;-93
2022/05/14 02:20:31;;;;;;;;;;;;;;;10.88;61.35;99309.81;4901366;29;1836;-93
2022/05/14 02:22:57;;;;;;;;;;;;;;;10.87;61.34;99297.41;4899905;29;2972;-93
2022/05/14 02:25:24;;;;;;;;;;;;;;;10.86;61.34;99306.56;4901115;29;1333;-93
2022/05/14 02:27:51;;;;;;;;;;;;;;;10.87;61.39;99313.56;4889975;29;2092;-94
2022/05/14 02:30:18;;;;;;;;;;;;;;;10.86;61.24;99301.16;4898547;29;3143;-93
2022/05/14 02:32:44;;;;;;;;;;;;;;;10.83;61.47;99307.06;4899569;29;2611;-93
2022/05/14 02:35:11;;;;;;;;;;;;;;;10.85;61.23;99322.94;4902238;29;1486;-92
2022/05/14 02:37:37;;;;;;;;;;;;;;;10.82;61.27;99310.78;4904835;29;2153;-93
2022/05/14 02:40:04;;;;;;;;;;;;;;;10.81;61.30;99305.69;4914631;29;2718;-93
2022/05/14 02:42:30;;;;;;;;;;;;;;;10.81;61.24;99306.47;4904557;29;966;-94
2022/05/14 02:44:57;;;;;;;;;;;;;;;10.80;61.19;99304.06;4901640;29;1338;-93
2022/05/14 02:47:24;;;;;;;;;;;;;;;10.80;61.24;99301.38;4898828;29;2122;-93
2022/05/14 02:49:50;;;;;;;;;;;;;;;10.79;61.34;99311.28;4901958;29;2668;-93
2022/05/14 02:52:17;;;;;;;;;;;;;;;10.78;61.35;99312.38;4901766;29;1140;-93
2022/05/14 02:54:43;;;;;;;;;;;;;;;10.77;61.17;99312.63;4915349;29;2000;-93
2022/05/14 02:57:10;;;;;;;;;;;;;;;10.76;61.31;99313.69;4901572;29;1482;-93
2022/05/14 02:59:36;;;;;;;;;;;;;;;10.75;61.21;99320.97;4917066;29;2736;-93
2022/05/14 03:02:04;;;;;;;;;;;;;;;10.75;61.30;99320.97;4899398;29;2384;-93
2022/05/14 03:04:30;;;;;;;;;;;;;;;10.73;61.18;99331.16;4899009;29;2143;-93
2022/05/14 03:06:57;;;;;;;;;;;;;;;10.73;61.16;99341.91;4902235;29;1285;-94
2022/05/14 03:09:24;;;;;;;;;;;;;;;10.72;61.25;99336.81;4920932;29;2408;-93
2022/05/14 03:11:50;;;;;;;;;;;;;;;10.69;61.23;99336.22;4885884;29;2460;-93
2022/05/14 03:14:17;;;;;;;;;;;;;;;10.68;61.31;99340.00;4921377;29;2400;-93
2022/05/14 03:16:43;;;;;;;;;;;;;;;10.68;61.34;99341.88;4916821;29;1928;-93
2022/05/14 03:19:09;;;;;;;;;;;;;;;10.67;61.38;99349.13;4917821;29;2033;-93
2022/05/14 03:21:36;;;;;;;;;;;;;;;10.67;61.31;99354.50;4923524;29;1331;-93
2022/05/14 03:24:03;;;;;;;;;;;;;;;10.67;61.30;99359.88;4934389;29;1726;-93
2022/05/14 03:26:29;;;;;;;;;;;;;;;10.66;61.17;99360.97;4903746;29;2441;-93
2022/05/14 03:28:56;;;;;;;;;;;;;;;10.65;61.25;99369.31;4903267;29;2526;-93
2022/05/14 03:31:22;;;;;;;;;;;;;;;10.65;61.19;99369.31;4901249;29;2608;-93
2022/05/14 03:33:49;;;;;;;;;;;;;;;10.62;61.24;99369.81;4900791;29;1976;-94
2022/05/14 03:36:15;;;;;;;;;;;;;;;10.62;61.33;99364.41;4916243;29;1341;-93
2022/05/14 03:38:42;;;;;;;;;;;;;;;10.61;61.32;99360.09;4904369;29;2173;-94
2022/05/14 03:41:09;;;;;;;;;;;;;;;10.60;61.31;99358.47;4899636;29;2375;-93
2022/05/14 03:43:35;;;;;;;;;;;;;;;10.60;61.43;99364.66;4914108;29;2719;-93
2022/05/14 03:46:02;;;;;;;;;;;;;;;10.59;61.21;99368.41;4896483;29;2418;-93
2022/05/14 03:48:29;;;;;;;;;;;;;;;10.59;61.28;99371.13;4914752;29;1769;-93
2022/05/14 03:50:55;;;;;;;;;;;;;;;10.59;61.28;99376.50;4904617;29;1289;-93
2022/05/14 03:53:22;;;;;;;;;;;;;;;10.57;61.16;99383.19;4908759;29;2707;-93
2022/05/14 03:55:48;;;;;;;;;;;;;;;10.57;61.28;99383.19;4908432;29;1079;-93
2022/05/14 03:58:15;;;;;;;;;;;;;;;10.57;61.30;99392.06;4902544;29;2353;-93
2022/05/14 04:00:41;;;;;;;;;;;;;;;10.56;61.21;99390.47;4902176;29;2493;-93
2022/05/14 04:03:07;;;;;;;;;;;;;;;10.55;61.08;99390.69;4904398;29;2017;-93
2022/05/14 04:05:34;;;;;;;;;;;;;;;10.54;61.15;99389.88;4902774;29;1649;-92
2022/05/14 04:08:01;;;;;;;;;;;;;;;10.54;61.17;99397.16;4902825;29;2382;-92
2022/05/14 04:10:27;;;;;;;;;;;;;;;10.54;61.13;99397.97;4884821;29;1304;-93
2022/05/14 04:12:53;;;;;;;;;;;;;;;10.53;61.17;99392.81;4899757;29;2000;-93
2022/05/14 04:15:23;;;;;;;;;;;;;;;10.51;61.13;99395.75;4884591;29;2754;-94
2022/05/14 04:17:50;;;;;;;;;;;;;;;10.51;61.13;99387.69;4890934;29;1999;-93
2022/05/14 04:20:16;;;;;;;;;;;;;;;10.51;61.09;99393.06;4899244;29;1219;-93
2022/05/14 04:22:43;;;;;;;;;;;;;;;10.50;61.03;99398.69;4911371;29;2937;-93
2022/05/14 04:25:11;;;;;;;;;;;;;;;10.49;61.08;99397.88;4908097;29;2097;-92
2022/05/14 04:27:40;;;;;;;;;;;;;;;10.49;61.01;99405.94;4905358;29;2558;-93
2022/05/14 04:30:06;;;;;;;;;;;;;;;10.48;61.05;99412.41;4895353;29;1443;-93
2022/05/14 04:32:33;;;;;;;;;;;;;;;10.48;61.11;99414.28;4902824;29;2926;-93
2022/05/14 04:34:59;;;;;;;;;;;;;;;10.48;61.02;99416.97;4927464;29;2308;-93
2022/05/14 04:37:26;;;;;;;;;;;;;;;10.48;60.97;99420.47;4914708;29;2006;-94
2022/05/14 04:39:52;;;;;;;;;;;;;;;10.45;61.10;99423.66;4925321;29;1993;-93
2022/05/14 04:42:19;;;;;;;;;;;;;;;10.45;61.07;99435.25;4916168;29;1391;-94
2022/05/14 04:44:45;;;;;;;;;;;;;;;10.44;61.02;99424.72;4913586;29;2501;-93
2022/05/14 04:47:12;;;;;;;;;;;;;;;10.44;61.00;99430.09;4901845;29;2161;-94
2022/05/14 04:49:38;;;;;;;;;;;;;;;10.43;61.07;99431.97;4911183;29;2719;-93
2022/05/14 04:52:05;;;;;;;;;;;;;;;10.44;61.02;99432.78;4905111;29;2254;-94
2022/05/14 04:54:31;;;;;;;;;;;;;;;10.42;60.93;99437.63;4892020;29;2179;-93
2022/05/14 04:56:58;;;;;;;;;;;;;;;10.39;60.71;99438.91;4917630;29;1262;-94
2022/05/14 04:59:24;;;;;;;;;;;;;;;10.39;60.86;99454.25;4901710;29;2203;-93
2022/05/14 05:04:31;;;;;;;;;;;;;;;10.39;60.65;99463.16;4883971;29;1967;-93
2022/05/14 05:06:58;;;;;;;;;;;;;;;10.40;60.63;99461.25;4915191;29;974;-93
2022/05/14 05:09:24;;;;;;;;;;;;;;;10.38;60.59;99468.75;4901332;29;2700;-93
2022/05/14 05:11:51;;;;;;;;;;;;;;;10.38;60.39;99474.97;4909819;29;1100;-93
2022/05/14 05:14:18;;;;;;;;;;;;;;;10.38;60.50;99472.28;4901191;29;2406;-93
2022/05/14 05:16:44;;;;;;;;;;;;;;;10.38;60.25;99480.38;4898476;29;2350;-93
2022/05/14 05:19:10;;;;;;;;;;;;;;;10.37;60.34;99481.41;4894635;29;2202;-93
2022/05/14 05:21:37;;;;;;;;;;;;;;;10.38;60.26;99491.13;4902431;29;1938;-93
2022/05/14 05:24:05;;;;;;;;;;;;;;;10.37;60.35;99497.56;4890733;29;2129;-93
2022/05/14 05:26:32;;;;;;;;;;;;;;;10.37;60.48;99502.94;4896283;29;2264;-94
2022/05/14 05:28:58;;;;;;;;;;;;;;;10.38;60.54;99503.75;4901201;29;2220;-93
2022/05/14 05:31:25;;;;;;;;;;;;;;;10.39;60.44;99506.22;4917427;29;1713;-93
2022/05/14 05:33:51;;;;;;;;;;;;;;;10.38;60.15;99504.59;4901631;29;2166;-94
2022/05/14 05:36:18;;;;;;;;;;;;;;;10.38;60.32;99520.75;4887330;29;2141;-93
2022/05/14 05:38:44;;;;;;;;;;;;;;;10.38;60.52;99515.34;4897271;29;2403;-93
2022/05/14 05:41:11;;;;;;;;;;;;;;;10.36;60.34;99509.41;4902099;29;1195;-93
2022/05/14 05:43:38;;;;;;;;;;;;;;;10.37;60.31;99502.13;4904246;29;2190;-93
2022/05/14 05:46:04;;;;;;;;;;;;;;;10.36;60.37;99503.19;4897950;29;1734;-93
2022/05/14 05:48:31;;;;;;;;;;;;;;;10.37;60.46;99508.31;4901686;29;1712;-93
2022/05/14 05:50:58;;;;;;;;;;;;;;;10.37;60.15;99520.97;4908166;29;1135;-93
2022/05/14 05:56:46;;;;;;;;;;;;;;;10.37;59.99;99524.47;4923862;29;2817;-93
2022/05/14 05:58:56;;;;;;;;;;;;;;;10.36;59.90;99517.47;4894012;29;2209;-92
2022/05/14 06:01:23;;;;;;;;;;;;;;;10.37;59.87;99524.47;4898767;29;2469;-92
2022/05/14 06:03:51;;;;;;;;;;;;;;;10.36;59.67;99530.94;4904049;29;2444;-93
2022/05/14 06:06:18;;;;;;;;;;;;;;;10.35;59.64;99534.69;4918606;29;958;-94
2022/05/14 06:08:44;;;;;;;;;;;;;;;10.36;59.93;99533.63;4901544;29;2716;-94
2022/05/14 06:11:11;;;;;;;;;;;;;;;10.37;59.53;99539.81;4903656;29;1961;-93
2022/05/14 06:13:37;;;;;;;;;;;;;;;10.37;59.96;99543.31;4900144;29;2616;-93
2022/05/14 06:16:04;;;;;;;;;;;;;;;10.37;59.88;99548.69;4919483;29;1534;-93
2022/05/14 06:18:30;;;;;;;;;;;;;;;10.37;59.74;99553.28;4916934;29;1766;-93
2022/05/14 06:20:57;;;;;;;;;;;;;;;10.38;59.88;99568.34;4901799;29;1271;-93
2022/05/14 06:23:23;;;;;;;;;;;;;;;10.38;59.98;99576.41;4901277;29;1998;-93
2022/05/14 06:25:50;;;;;;;;;;;;;;;10.37;59.73;99577.50;4900766;29;1362;-93
2022/05/14 06:28:16;;;;;;;;;;;;;;;10.39;59.64;99607.69;4899614;29;1581;-93
2022/05/14 06:30:43;;;;;;;;;;;;;;;10.39;59.64;99615.75;4901781;29;1284;-93
2022/05/14 06:33:09;;;;;;;;;;;;;;;10.37;59.66;99615.19;4901527;29;2766;-93
2022/05/14 06:35:36;;;;;;;;;;;;;;;10.39;59.90;99616.56;4904539;29;1899;-93
2022/05/14 06:38:03;;;;;;;;;;;;;;;10.39;59.76;99623.84;4902755;29;1704;-94
2022/05/14 06:40:29;;;;;;;;;;;;;;;10.38;59.61;99623.03;4901698;29;1624;-93
2022/05/14 06:42:56;;;;;;;;;;;;;;;10.38;59.10;99633.78;4904864;29;2635;-93
2022/05/14 06:45:22;;;;;;;;;;;;;;;10.39;59.05;99650.75;4918921;29;1186;-93
2022/05/14 06:47:49;;;;;;;;;;;;;;;10.38;59.55;99658.00;4910565;29;2562;-93
2022/05/14 06:50:15;;;;;;;;;;;;;;;10.38;59.47;99652.63;4927828;29;1315;-93
2022/05/14 06:52:42;;;;;;;;;;;;;;;10.40;59.16;99647.00;4910380;29;2965;-93
2022/05/14 06:55:09;;;;;;;;;;;;;;;10.40;59.18;99647.00;4928092;29;1915;-93
2022/05/14 06:57:35;;;;;;;;;;;;;;;10.40;59.11;99658.56;4902301;29;2367;-93
2022/05/14 07:00:03;;;;;;;;;;;;;;;10.41;58.96;99659.38;4903499;29;2477;-93
2022/05/14 07:02:29;;;;;;;;;;;;;;;10.40;59.33;99660.44;4912102;29;2773;-94
2022/05/14 07:07:40;;;;;;;;;;;;;;;10.39;58.93;99666.91;4889766;29;2090;-93
2022/05/14 07:10:07;;;;;;;;;;;;;;;10.38;58.88;99670.63;4901559;29;3996;-93
2022/05/14 07:12:33;;;;;;;;;;;;;;;10.39;58.69;99672.28;4913624;29;1983;-94
2022/05/14 07:15:01;;;;;;;;;;;;;;;10.41;58.94;99679.06;4905237;29;2228;-94
2022/05/14 07:17:28;;;;;;;;;;;;;;;10.40;58.86;99684.69;4895352;29;1665;-93
2022/05/14 07:19:55;;;;;;;;;;;;;;;10.38;58.35;99698.38;4920544;29;2036;-93
2022/05/14 07:22:21;;;;;;;;;;;;;;;10.38;58.41;99711.00;4903661;29;1475;-93
2022/05/14 07:24:48;;;;;;;;;;;;;;;10.36;58.15;99713.13;4920819;29;2342;-93
2022/05/14 07:27:14;;;;;;;;;;;;;;;10.37;58.56;99715.56;4903359;29;1771;-93
2022/05/14 07:29:41;;;;;;;;;;;;;;;10.40;59.06;99719.66;4905266;29;2953;-93
2022/05/14 07:32:07;;;;;;;;;;;;;;;10.41;59.11;99711.38;4920774;29;2059;-93
2022/05/14 07:34:34;;;;;;;;;;;;;;;10.42;58.83;99712.19;4900743;29;3733;-93
2022/05/14 07:37:01;;;;;;;;;;;;;;;10.42;58.75;99717.56;4904873;29;1067;-93
2022/05/14 07:39:27;;;;;;;;;;;;;;;10.41;58.45;99716.75;4918856;29;5148;-96
2022/05/14 07:41:54;;;;;;;;;;;;;;;10.42;58.92;99704.91;4903284;29;2667;-96
2022/05/14 07:44:21;;;;;;;;;;;;;;;10.41;58.42;99710.53;4912578;29;2226;-96
2022/05/14 07:46:49;;;;;;;;;;;;;;;10.42;58.85;99701.41;4925315;29;1234;-96
2022/05/14 07:49:16;;;;;;;;;;;;;;;10.42;58.54;99717.56;4907650;29;2421;-96
2022/05/14 07:51:43;;;;;;;;;;;;;;;10.41;58.52;99721.28;4922456;29;1229;-96
2022/05/14 07:54:09;;;;;;;;;;;;;;;10.42;58.18;99725.66;4900072;29;4291;-96
2022/05/14 07:56:38;;;;;;;;;;;;;;;10.41;58.03;99735.59;4918249;29;3958;-96
2022/05/14 07:59:04;;;;;;;;;;;;;;;10.43;58.27;99729.97;4904790;29;2766;-96
2022/05/14 08:01:31;;;;;;;;;;;;;;;10.42;57.22;99731.84;4903828;29;1549;-96
2022/05/14 08:03:57;;;;;;;;;;;;;;;10.42;58.39;99739.09;4900869;29;4023;-95
2022/05/14 08:06:24;;;;;;;;;;;;;;;10.42;58.74;99739.91;4900566;29;2242;-93
2022/05/14 08:08:51;;;;;;;;;;;;;;;10.42;57.50;99761.44;4901368;29;3010;-93
2022/05/14 08:11:18;;;;;;;;;;;;;;;10.44;58.20;99766.59;4904872;29;1920;-93
2022/05/14 08:13:45;;;;;;;;;;;;;;;10.44;57.63;99763.88;4904129;29;2390;-94
2022/05/14 08:16:11;;;;;;;;;;;;;;;10.45;58.08;99784.38;4906131;29;1907;-94
2022/05/14 08:18:38;;;;;;;;;;;;;;;10.43;57.36;99776.53;4903864;29;4175;-94
2022/05/14 08:26:29;;;;;;;;;;;;;;;10.45;58.29;99782.50;4902937;29;1511;-93
2022/05/14 08:28:56;;;;;;;;;;;;;;;10.45;58.30;99779.00;4915875;29;4142;-93
2022/05/14 08:31:23;;;;;;;;;;;;;;;10.44;57.10;99778.19;4903351;29;1183;-93
2022/05/14 08:33:49;;;;;;;;;;;;;;;10.46;57.63;99777.94;4905515;29;1676;-93
2022/05/14 08:36:16;;;;;;;;;;;;;;;10.45;58.13;99787.09;4903797;29;1948;-94
2022/05/14 08:38:42;;;;;;;;;;;;;;;10.45;58.52;99787.91;4916575;29;4209;-94
2022/05/14 08:41:09;;;;;;;;;;;;;;;10.47;58.84;99779.59;4902557;29;1754;-94
2022/05/14 08:43:36;;;;;;;;;;;;;;;10.46;58.40;99788.72;4925309;29;2008;-94
2022/05/14 08:46:02;;;;;;;;;;;;;;;10.50;58.56;99783.66;4903458;29;1282;-94
2022/05/14 08:48:29;;;;;;;;;;;;;;;10.49;58.51;99788.22;4901873;29;2233;-93
2022/05/14 08:50:55;;;;;;;;;;;;;;;10.48;58.61;99778.53;4902443;29;1428;-94
2022/05/14 08:53:22;;;;;;;;;;;;;;;10.49;59.06;99790.09;4906506;29;4169;-94
2022/05/14 08:55:48;;;;;;;;;;;;;;;10.49;58.51;99790.09;4906855;29;1988;-93
2022/05/14 08:58:15;;;;;;;;;;;;;;;10.49;57.79;99793.63;4902259;29;1957;-93
2022/05/14 09:00:42;;;;;;;;;;;;;;;10.51;58.50;99790.69;4901884;29;1491;-94
2022/05/14 09:03:10;;;;;;;;;;;;;;;10.50;58.52;99813.28;4916358;29;4061;-93
2022/05/14 09:05:36;;;;;;;;;;;;;;;10.51;56.50;99815.75;4902308;29;1428;-94
2022/05/14 09:08:03;;;;;;;;;;;;;;;10.52;57.87;99808.47;4902068;29;2711;-94
2022/05/14 09:10:30;;;;;;;;;;;;;;;10.52;58.65;99803.91;4885944;29;1475;-93
2022/05/14 09:12:59;;;;;;;;;;;;;;;10.52;57.87;99814.69;4902822;29;1762;-94
2022/05/14 09:15:26;;;;;;;;;;;;;;;10.53;58.56;99802.88;4902389;29;1982;-94
2022/05/14 09:17:53;;;;;;;;;;;;;;;10.54;58.45;99819.84;4912735;29;2829;-94
2022/05/14 09:20:20;;;;;;;;;;;;;;;10.54;57.37;99817.97;4889022;29;4506;-93
2022/05/14 09:22:47;;;;;;;;;;;;;;;10.55;58.07;99821.47;4899890;29;1596;-94
2022/05/14 09:25:14;;;;;;;;;;;;;;;10.56;58.01;99823.09;4905917;29;1321;-94
2022/05/14 09:27:40;;;;;;;;;;;;;;;10.57;58.64;99833.63;4899315;29;2688;-94
2022/05/14 09:30:07;;;;;;;;;;;;;;;10.56;59.05;99832.00;4901799;29;1314;-94
2022/05/14 09:32:34;;;;;;;;;;;;;;;10.57;59.10;99840.91;4901705;29;2421;-94
2022/05/14 09:35:02;;;;;;;;;;;;;;;10.58;58.80;99842.53;4920425;29;4167;-94
2022/05/14 09:37:29;;;;;;;;;;;;;;;10.59;57.37;99844.16;4902318;29;1467;-94
2022/05/14 09:39:55;;;;;;;;;;;;;;;10.59;58.89;99849.53;4892916;29;3850;-94
2022/05/14 09:42:21;;;;;;;;;;;;;;;10.60;59.06;99843.13;4902356;29;1202;-94
2022/05/14 09:44:48;;;;;;;;;;;;;;;10.60;58.04;99849.31;4917060;29;2214;-95
2022/05/14 09:47:14;;;;;;;;;;;;;;;10.61;58.92;99848.25;4901852;29;1206;-94
2022/05/14 09:49:42;;;;;;;;;;;;;;;10.61;58.79;99850.94;4898620;29;3957;-94
2022/05/14 09:52:08;;;;;;;;;;;;;;;10.64;59.09;99860.44;4901525;29;1395;-95
2022/05/14 09:54:35;;;;;;;;;;;;;;;10.63;59.35;99866.88;4917984;29;2358;-94
2022/05/14 09:57:01;;;;;;;;;;;;;;;10.63;58.71;99881.16;4917772;29;1202;-94
2022/05/14 09:59:28;;;;;;;;;;;;;;;10.64;58.62;99885.47;4904131;29;2851;-94
2022/05/14 10:01:54;;;;;;;;;;;;;;;10.66;58.18;99879.88;4920250;29;1629;-93
2022/05/14 10:04:21;;;;;;;;;;;;;;;10.65;57.78;99879.06;4891045;29;4059;-94
2022/05/14 10:06:47;;;;;;;;;;;;;;;10.68;58.44;99875.09;4908547;29;1407;-94
2022/05/14 10:09:14;;;;;;;;;;;;;;;10.68;57.75;99878.59;4915198;29;3936;-94
2022/05/14 10:11:44;;;;;;;;;;;;;;;10.69;57.47;99880.22;4918925;29;1002;-94
2022/05/14 10:14:10;;;;;;;;;;;;;;;10.71;57.96;99889.91;4913178;29;2785;-94
2022/05/14 10:16:37;;;;;;;;;;;;;;;10.72;57.50;99888.88;4906605;29;1972;-94
2022/05/14 10:19:03;;;;;;;;;;;;;;;10.72;57.74;99892.41;4897860;29;4092;-94
2022/05/14 10:21:30;;;;;;;;;;;;;;;10.74;57.30;99887.59;4921629;29;1475;-93
2022/05/14 10:26:47;;;;;;;;;;;;;;;10.76;57.84;99903.50;4887400;29;1168;-94
2022/05/14 10:29:14;;;;;;;;;;;;;;;10.76;57.73;99898.94;4903345;29;2413;-94
2022/05/14 10:31:40;;;;;;;;;;;;;;;10.77;57.50;99903.28;4930016;29;1570;-93
2022/05/14 10:34:08;;;;;;;;;;;;;;;10.79;57.41;99914.63;4905429;29;5161;-94
2022/05/14 10:36:34;;;;;;;;;;;;;;;10.80;56.75;99923.53;4926130;29;1907;-93
2022/05/14 10:39:01;;;;;;;;;;;;;;;10.81;57.61;99917.91;4905190;29;2802;-93
2022/05/14 10:41:27;;;;;;;;;;;;;;;10.82;57.23;99926.78;4905065;29;1930;-93
2022/05/14 10:43:56;;;;;;;;;;;;;;;10.83;57.33;99923.06;4900338;29;4110;-93
2022/05/14 10:46:23;;;;;;;;;;;;;;;10.84;58.12;99922.00;4905264;29;1499;-93
2022/05/14 10:48:50;;;;;;;;;;;;;;;10.84;57.74;99924.69;4908355;29;1763;-93
2022/05/14 10:51:16;;;;;;;;;;;;;;;10.84;57.74;99930.91;4905693;29;1281;-93
2022/05/14 10:53:43;;;;;;;;;;;;;;;10.86;57.32;99936.06;4903401;29;2436;-93
2022/05/14 10:56:09;;;;;;;;;;;;;;;10.88;57.24;99939.31;4904650;29;1918;-93
2022/05/14 10:58:43;;;;;;;;;;;;;;;10.88;57.31;99933.94;4902327;29;4025;-92
2022/05/14 11:01:09;;;;;;;;;;;;;;;10.89;57.30;99938.28;4890843;29;5394;-92
2022/05/14 11:03:36;;;;;;;;;;;;;;;10.90;58.21;99942.59;4917004;29;2702;-93
2022/05/14 11:06:02;;;;;;;;;;;;;;;10.90;57.79;99935.34;4922343;29;1307;-94
2022/05/14 11:08:29;;;;;;;;;;;;;;;10.91;58.38;99928.91;4908709;29;2403;-94
2022/05/14 11:10:55;;;;;;;;;;;;;;;10.92;58.80;99940.50;4904815;29;1279;-94
2022/05/14 11:13:23;;;;;;;;;;;;;;;10.93;59.09;99939.44;4901562;29;4193;-94
2022/05/14 11:15:50;;;;;;;;;;;;;;;10.93;59.53;99935.94;4903536;29;1964;-94
2022/05/14 11:18:16;;;;;;;;;;;;;;;10.94;59.53;99937.56;4919851;29;2710;-94
2022/05/14 11:20:43;;;;;;;;;;;;;;;10.95;59.51;99945.41;4907587;29;1198;-94
2022/05/14 11:23:09;;;;;;;;;;;;;;;10.96;59.31;99951.63;4900133;29;4053;-94
2022/05/14 11:25:36;;;;;;;;;;;;;;;10.97;59.12;99955.94;4899208;29;1302;-94
2022/05/14 11:28:02;;;;;;;;;;;;;;;10.97;59.49;99958.63;4903317;29;2207;-94
2022/05/14 11:30:29;;;;;;;;;;;;;;;10.98;59.38;99955.72;4904390;29;1191;-94
2022/05/14 11:32:55;;;;;;;;;;;;;;;10.98;58.95;99963.00;4920342;29;2435;-93
2022/05/14 11:35:22;;;;;;;;;;;;;;;10.97;58.67;99964.88;4908491;29;1980;-94
2022/05/14 11:37:49;;;;;;;;;;;;;;;10.99;58.46;99961.94;4900988;29;2841;-94
2022/05/14 11:40:16;;;;;;;;;;;;;;;11.01;58.64;99973.28;4899724;29;4497;-94
2022/05/14 11:42:43;;;;;;;;;;;;;;;11.02;59.00;99972.22;4891470;29;2098;-94
2022/05/14 11:45:10;;;;;;;;;;;;;;;11.02;58.80;99967.66;4907579;29;1175;-93
2022/05/14 11:47:36;;;;;;;;;;;;;;;11.04;59.22;99976.34;4886025;29;2585;-95
2022/05/14 11:50:03;;;;;;;;;;;;;;;11.05;59.31;99977.16;4890516;29;2177;-93
2022/05/14 11:52:30;;;;;;;;;;;;;;;11.06;59.55;99976.06;4929232;29;1395;-94
2022/05/14 11:54:56;;;;;;;;;;;;;;;11.07;59.59;99978.56;4919654;29;5038;-95
2022/05/14 11:57:23;;;;;;;;;;;;;;;11.07;59.48;99989.31;4905364;29;1907;-95
2022/05/14 11:59:49;;;;;;;;;;;;;;;11.08;59.15;99982.88;4905151;29;2715;-94
2022/05/14 12:02:16;;;;;;;;;;;;;;;11.09;59.17;99981.84;4904111;29;1710;-95
2022/05/14 12:04:43;;;;;;;;;;;;;;;11.11;59.25;99985.09;4901021;29;4740;-92
2022/05/14 12:07:09;;;;;;;;;;;;;;;11.14;59.51;99978.41;4903968;29;1319;-92
2022/05/14 12:09:37;;;;;;;;;;;;;;;11.14;59.79;99976.53;4896796;29;2056;-92
2022/05/14 12:12:03;;;;;;;;;;;;;;;11.16;60.03;99984.41;4921328;29;1571;-94
2022/05/14 12:14:30;;;;;;;;;;;;;;;11.17;60.15;99979.81;4898422;29;2413;-92
2022/05/14 12:16:56;;;;;;;;;;;;;;;11.18;60.08;99994.91;4900991;29;1911;-93
2022/05/14 12:19:23;;;;;;;;;;;;;;;11.19;59.93;99991.19;4910521;29;4144;-92
2022/05/14 12:21:50;;;;;;;;;;;;;;;11.19;60.08;100000.09;4903696;29;1368;-92
2022/05/14 12:24:16;;;;;;;;;;;;;;;11.20;59.99;100007.09;4898172;29;1893;-92
2022/05/14 12:26:43;;;;;;;;;;;;;;;11.21;60.13;100006.06;4936388;29;1068;-93
2022/05/14 12:29:09;;;;;;;;;;;;;;;11.23;60.05;100006.63;4902147;29;2150;-94
2022/05/14 12:34:20;;;;;;;;;;;;;;;11.25;60.16;100026.09;4902592;29;4094;-94
2022/05/14 12:36:47;;;;;;;;;;;;;;;11.26;59.99;100024.22;4917369;29;1915;-94
2022/05/14 12:39:13;;;;;;;;;;;;;;;11.28;60.30;100030.19;4916588;29;1987;-94
2022/05/14 12:41:41;;;;;;;;;;;;;;;11.28;60.24;100032.91;4903005;29;1583;-94
2022/05/14 12:44:08;;;;;;;;;;;;;;;11.30;60.09;100038.88;4894260;29;4951;-94
2022/05/14 12:46:35;;;;;;;;;;;;;;;11.31;60.22;100044.00;4923930;29;1052;-94
2022/05/14 12:49:01;;;;;;;;;;;;;;;11.32;60.50;100042.13;4903193;29;2736;-93
2022/05/14 12:51:28;;;;;;;;;;;;;;;11.32;60.48;100042.13;4931395;29;1440;-95
2022/05/14 12:53:54;;;;;;;;;;;;;;;11.33;60.53;100036.53;4898129;29;2814;-96
2022/05/14 12:56:21;;;;;;;;;;;;;;;11.35;60.36;100047.91;4918305;29;1910;-93
2022/05/14 12:58:47;;;;;;;;;;;;;;;11.37;60.58;100048.47;4914191;29;4079;-94
2022/05/14 13:01:14;;;;;;;;;;;;;;;11.39;60.66;100050.94;4901806;29;2101;-94
2022/05/14 13:03:41;;;;;;;;;;;;;;;11.40;60.66;100057.97;4902428;29;2155;-94
2022/05/14 13:06:09;;;;;;;;;;;;;;;11.42;60.77;100060.44;4901187;29;3680;-93
2022/05/14 13:08:36;;;;;;;;;;;;;;;11.43;60.97;100059.38;4899973;29;2486;-95
2022/05/14 13:11:02;;;;;;;;;;;;;;;11.44;61.04;100052.91;4917863;29;1694;-95
2022/05/14 13:13:29;;;;;;;;;;;;;;;11.44;60.87;100056.44;4902580;29;3582;-95
2022/05/14 13:15:55;;;;;;;;;;;;;;;11.45;60.97;100068.84;4885582;29;2272;-95
2022/05/14 13:18:22;;;;;;;;;;;;;;;11.46;60.99;100064.28;4887731;29;2464;-94